< < Back
Terminal Aerodrome Forecast


Current Version              Previous Versions:   1  2  3  4  5  6  7  8  9  

Terminal Aerodrome Forecast

975
FTUS42 KFFC 241723
TAFATL
TAF
KATL 241723Z 2418/2524 24014G24KT P6SM SCT030
     FM242200 26012G21KT P6SM SCT040
     FM250000 30010KT P6SM SCT080
     FM251500 33007KT P6SM BKN120
     FM252100 30007KT P6SM OVC080=

Latest METAR

508
SAUS70 KWBC 241800 RRB
MTRATL
METAR KATL 241752Z 23014G18KT 10SM FEW040 SCT150 SCT250 23/12 A2980 RMK
AO2 SLP086 T02280122 10233 20161 58004


USA.gov is the U.S. government's official web portal to all federal, state and local government web resources and services.